ADVERTISEMENT

iOS app on App Store Android app on Google Play

2018 \ LAX Run, Tommy Scott Memorial Half Marathon 5K & 10K - April 29, 2018

Notes Pages Download Filter By
Certificate and Photos: https://www.athlinks.com/event/135589/results/Event/672877/Results 1 2




Keyword Exact  
Division

Bib First Name Last Name Sex Age City Total Time Division Division Place Division Total Sex Place Gender Total Overall Total Runners
Not Found
Notes Pages Download Filter By
Certificate and Photos: https://www.athlinks.com/event/135589/results/Event/672877/Results 1 2 3 [4]




Keyword Exact  
Division

Bib First Name Last Name Sex Age City Country Total Time Division Division Total Sex Place Gender Total Overall Total Runners
3050 Marlon Blake M 30 Inglewood United States 01:21:23 30-39 28 143 157 301 364
3036 Imelda Zavala F 38 Carson United States 01:21:26 30-39 52 159 207 302 364
2641 Reina Gallo F 39 La Puente United States 01:21:36 30-39 52 160 207 303 364
2980 MARK DIAMANTE M 37 Chino United States 01:21:38 30-39 28 144 157 304 364
2812 Yolanda Caracoza F 49 Los Angeles United States 01:21:45 40-49 47 161 207 305 364
2816 David Nolasco M 40 Lakewood United States 01:21:53 40-49 26 145 157 306 364
2686 Blair Benmoin F 25 Los Angeles United States 01:22:07 19-29 32 162 207 307 364
2998 Slychet Stone F 42 Oxnard United States 01:22:50 40-49 47 163 207 308 364
3043 Pat Garner F 51 Torrance United States 01:22:51 50-59 25 164 207 309 364
2689 Ana Melgar F 47 Los Angeles United States 01:23:19 40-49 47 165 207 310 364
2659 Greta Ito F 41 Playa Del Rey United States 01:24:05 40-49 47 166 207 311 364
2930 Noemi Parra F 12 Los Angeles United States 01:24:18 1-12 19 167 207 312 364
2929 Graciela Mejia F 29 Los Angeles United States 01:24:22 19-29 32 169 207 314 364
3045 Annel Monsalvo F 23 Los Angeles United States 01:24:22 19-29 32 168 207 313 364
3015 Aziz Ladha M 29 Santa Monica United States 01:24:37 Law Enforcement Men 14 146 157 315 364
2807 Julia De la paz F 16 Los Angeles United States 01:25:04 13-18 19 170 207 316 364
2945 Eduardo Carro M 18 Los Angeles United States 01:25:05 13-18 17 147 157 317 364
2783 Sandra Vicencio F 17 Los Angeles United States 01:25:06 13-18 19 171 207 318 364
2789 Betzania Desantiago F 16 Los Angeles United States 01:25:07 13-18 19 172 207 319 364
2817 Laura Robillos F 45 Long Beach United States 01:25:11 40-49 47 173 207 320 364
2955 Lisa Munoz F 50 Long Beach United States 01:25:13 50-59 25 174 207 321 364
2794 Cynthia Chapman F 55 Seal Beach United States 01:25:30 50-59 25 175 207 322 364
2605 Kelli Pieschel F 51 Lewisville United States 01:25:41 50-59 25 176 207 323 364
2654 Neil Rasmussen M 48 Los Angeles United States 01:25:54 40-49 26 148 157 324 364
2795 Jacqueline Davis F 49 Cypress United States 01:25:56 40-49 47 177 207 325 364
2732 Debbie Porter F 50 Palmdale United States 01:26:17 50-59 25 178 207 326 364
2943 Alejandrina Zavala F 43 Carson United States 01:27:04 40-49 47 179 207 327 364
2820 Randi Grigsby F 30 Sherman Oaks United States 01:27:52 30-39 52 180 207 328 364
2906 Daryl Simpson M 49 Los Angeles United States 01:28:00 40-49 26 149 157 329 364
2694 Michelle Irwin F 47 Los Angeles United States 01:28:18 40-49 47 181 207 330 364
2691 Damina Malikin F 38 Gardena United States 01:28:40 30-39 52 182 207 331 364
2910 Lorraine Fuentes F 29 Lynwood United States 01:29:51 19-29 32 183 207 332 364
3051 Tiffany Gutierrez F 29 Ontario United States 01:29:55 19-29 32 184 207 333 364
3053 Silvia Martinez F 42 Rosemead United States 01:29:56 40-49 47 185 207 334 364
3028 Alejandra Gurrola F 41 Mission Hills United States 01:29:57 40-49 47 186 207 335 364
2798 Ricardo Aguilar M 61 Temple City United States 01:30:21 Law Enforcement Men 14 150 157 336 364
2639 Starla Reader F 34 La Puente United States 01:30:22 Law Enforcement 5 187 207 337 364
2908 Ray Woods M 38 Los Angeles United States 01:30:24 Law Enforcement Men 14 151 157 338 364
2723 Evelyn Orellana F 36 Burbank United States 01:31:14 30-39 52 188 207 339 364
2897 Lauren Palmerino F 28 Los Angeles United States 01:31:56 19-29 32 189 207 340 364
2978 RENITA ENGLISH F 45 California City United States 01:32:04 40-49 47 190 207 341 364
2676 Crystal Sherman F 44 Inglewood United States 01:32:48 40-49 47 191 207 342 364
2638 Osvaldo Reyes M 16 Los Angeles United States 01:33:41 13-18 17 152 157 343 364
2821 Laura Veretenikoff F 56 Irvine United States 01:35:05 50-59 25 192 207 344 364
2627 Jo Lam F 67 Gardena United States 01:35:27 60-69 5 193 207 345 364
2671 Marc Bonifacio M 36 Costa Mesa United States 01:36:08 30-39 28 153 157 346 364
2693 Lisa Blackford F 57 El Segundo United States 01:36:59 50-59 25 194 207 347 364
2677 Dillion Skelton M 15 Inglewood United States 01:38:05 13-18 17 154 157 348 364
2818 Trish Huff F 38 Rancho Palos Verdes United States 01:38:20 30-39 52 195 207 349 364
2622 Clara Sic Alonzo F 31 Los Angeles United States 01:38:51 30-39 52 196 207 350 364
2621 Regina Medrano-Alonzo F 10 Los Angeles United States 01:38:52 1-12 19 197 207 351 364
3037 KERRY TOWNSEND F 45 Rancho Cucamonga United States 01:38:56 40-49 47 198 207 352 364
3003 Cecilia Miller F 31 Ontario United States 01:38:57 30-39 52 199 207 353 364
2618 Florence Akinnuso F 38 Torrance United States 01:39:47 30-39 52 200 207 354 364
2928 Joshua Stone M 33 Montebello United States 01:41:11 30-39 28 155 157 355 364
2926 Xochitl Maldonado F 52 Montebello United States 01:41:35 50-59 25 201 207 356 364
2722 Darlene Fuller F 43 Compton United States 01:42:08 40-49 47 202 207 357 364
2977 Vickie Hubbard F 45 Los Angeles United States 01:42:31 40-49 47 203 207 358 364
2742 Jennifer Posadas F 37 Pico Rivera United States 01:44:35 30-39 52 204 207 359 364
2846 Kimberlee Becton F 46 Memphis United States 01:53:10 40-49 47 205 207 360 364
3026 Leticia Carter F 39 Montebello United States 01:55:14 30-39 52 206 207 361 364
3027 Ronae Harrison F 42 Los Angeles United States 01:55:14 40-49 47 207 207 362 364
3022 Mateo Abilla M 15 Los Angeles United States 01:58:44 13-18 17 156 157 363 364
3023 John-Pierre Abilla M 53 Los Angeles United States 01:58:45 50-59 28 157 157 364 364
Notes Pages Download Filter By
Certificate and Photos: https://www.athlinks.com/event/135589/results/Event/672877/Results 1 2 3 [4] 5




Keyword Exact  
Division

Bib First Name Last Name Sex Age City Country Total Time Division Division Place Division Total Sex Place Gender Total Overall Total Runners
2129 Lynda Diaz F 31 Pacoima United States 00:44:30 30-39 48 59 159 266 301 438
2248 Abigaile Limen F 27 Riverside United States 00:44:48 19-29 20 30 160 266 302 438
2099 Yetunde Sanusi F 26 Hawthorne United States 00:44:48 19-29 21 30 161 266 303 438
2321 Julie Bryan F 59 Playa Del Rey United States 00:44:52 50-59 27 50 162 266 304 438
2074 Samuel Mercado M 13 Pico Rivera United States 00:44:56 13-18 45 48 143 172 305 438
2389 Rosalind Spears-Nash F 59 Los Angeles United States 00:45:02 50-59 28 50 163 266 306 438
2142 Nelly Penaloza F 18 Compton United States 00:45:11 13-18 28 35 164 266 307 438
2130 Kevin Moreno M 30 Sylmar United States 00:45:17 30-39 34 32 144 172 308 438
2318 LeAnn Zunich F 54 Long Beach United States 00:45:37 50-59 29 50 165 266 309 438
2334 Marty Lashenick M 75 North Hollywood United States 00:45:49 70-99 2 5 145 172 310 438
2079 Bernetta Gordon F 51 Torrance United States 00:45:50 50-59 30 50 166 266 311 438
2290 MONIQUE GOVAN F 35 Los Angeles United States 00:45:53 30-39 49 59 167 266 312 438
2170 Samantha Abarca F 16 Bell Gardens United States 00:46:15 13-18 29 35 168 266 313 438
2376 Livier Portugal Ayon F 31 Newhall United States 00:46:19 30-39 50 59 169 266 314 438
2347 Trish Taylor F 50 Canyon Country United States 00:46:20 50-59 31 50 170 266 315 438
2132 Monica Altamirano F 40 El Segundo United States 00:46:23 40-49 31 52 171 266 316 438
2166 Keyla Jimenez F 14 Los Angeles United States 00:46:27 13-18 30 35 172 266 317 438
2337 Skyler Valderama M 0 North Hollywood United States 00:46:30 146 1 146 172 318 438
2336 Carolyn Yian F 39 North Hollywood United States 00:46:33 30-39 51 59 173 266 319 438
2323 Freddie Williams F 63 Inglewood United States 00:46:41 60-69 5 19 174 266 320 438
2263 Roberto Santana M 24 Inglewood United States 00:46:46 19-29 23 21 147 172 321 438
2264 Deborah Ruiz F 30 San Pedro United States 00:46:47 30-39 52 59 175 266 322 438
2271 Tiffany Garcia F 42 Alhambra United States 00:46:50 40-49 32 52 176 266 323 438
2398 Joseph Santangelo M 57 Inglewood United States 00:46:54 50-59 19 16 148 172 324 438
2251 Nancy Berry F 62 Mission Viejo United States 00:47:01 60-69 6 19 177 266 325 438
2134 Leah Chin F 52 Inglewood United States 00:47:02 50-59 32 50 178 266 326 438
2424 Erika McLeod F 37 Marina Del Rey United States 00:47:06 30-39 53 59 179 266 327 438
2283 Toni Reed F 41 Hawthorne United States 00:47:16 40-49 33 52 180 266 328 438
2333 Barbara Lashenick F 73 North Hollywood United States 00:47:22 70-99 1 3 181 266 329 438
2418 Dora Chin F 40 Los Angeles United States 00:47:26 40-49 34 52 182 266 330 438
2240 Emilia Garland F 45 Redondo Beach United States 00:47:29 40-49 35 52 183 266 331 438
2238 Marsha Mitchell F 50 Los Angeles United States 00:47:48 50-59 33 50 184 266 332 438
2050 Michael Dinius M 43 El Segundo United States 00:48:09 40-49 17 18 149 172 333 438
2047 Natalie Petrossian F 44 Van Nuys United States 00:48:19 40-49 36 52 185 266 334 438
2056 Erick Dominguez M 40 Los Angeles United States 00:48:27 40-49 18 18 150 172 335 438
2057 Kerri Webb F 42 Los Angeles United States 00:48:28 40-49 37 52 186 266 336 438
2054 Joseph Brook M 72 Culver City United States 00:48:33 70-99 3 5 151 172 337 438
2222 Hortencia Bustamante F 20 Los Angeles United States 00:48:46 19-29 22 30 187 266 338 438
2226 Kelly Grijalva F 43 Hawthorne United States 00:48:50 40-49 38 52 188 266 339 438
2385 Marilyn Trujillo F 14 Mission Hills United States 00:48:56 13-18 31 35 190 266 341 438
2386 Evelyn Leal F 14 Mission Hills United States 00:48:56 13-18 32 35 191 266 342 438
2077 Angela Amerson F 50 Los Angeles United States 00:48:56 50-59 34 50 189 266 340 438
2281 Vickie Bradley F 58 Inglewood United States 00:48:57 50-59 35 50 192 266 343 438
2387 Rocio Cifuentes F 13 Mission Hills United States 00:48:58 13-18 33 35 193 266 344 438
2282 Tina Ray F 51 Long Beach United States 00:49:16 50-59 36 50 194 266 345 438
2124 James Stracke M 11 Los Angeles United States 00:49:33 1-12 5 6 152 172 346 438
2038 Zitel Anyeneh F 25 Carson United States 00:49:43 19-29 23 30 195 266 347 438
2125 Philip Stracke M 14 Los Angeles United States 00:49:50 13-18 46 48 153 172 348 438
2095 Sarah Brown F 64 Playa Del Rey United States 00:50:00 60-69 7 19 196 266 349 438
2341 Amy MacPhee F 28 Reseda United States 00:50:18 19-29 24 30 197 266 350 438
2444 Michael Magnani M 41 Homewood United States 00:50:19 40-49 19 18 154 172 352 438
2451 Renee Bayley F 40 Culver City United States 00:50:19 40-49 39 52 198 266 351 438
2083 Shaun Lopez M 43 Torrance United States 00:50:36 40-49 20 18 155 172 354 438
2082 Maria Ruvalcaba F 35 Torrance United States 00:50:36 30-39 54 59 199 266 353 438
2284 Wendy Miyares F 38 El Segundo United States 00:50:40 30-39 55 59 200 266 355 438
2469 Sherry Estrada F 25 Fontana United States 00:50:40 19-29 25 30 202 266 357 438
2468 GISELA ESTRADA F 43 Fontana United States 00:50:40 40-49 40 52 201 266 356 438
2390 Tena Goodwyn F 52 Carson United States 00:50:44 50-59 37 50 203 266 358 438
2292 Tamara Cathay F 42 Cerritos United States 00:50:46 40-49 41 52 204 266 359 438
2236 Lisa Jay F 48 Canyon Country United States 00:51:03 40-49 42 52 205 266 360 438
2049 Karen Karraker F 62 Burbank United States 00:51:06 60-69 8 19 206 266 361 438
2167 Nancy Hoffman F 54 Newhall United States 00:51:07 50-59 38 50 207 266 362 438
2294 Michael Bautista M 30 Moreno Valley United States 00:51:08 30-39 35 32 156 172 364 438
2237 Armida Brooks F 76 Newhall United States 00:51:08 70-99 2 3 208 266 363 438
2227 Mary Aicel Orbita F 29 Pico Rivera United States 00:51:12 19-29 26 30 209 266 365 438
2016 Gladys Chandler F 67 Redwood City United States 00:51:27 60-69 9 19 210 266 366 438
2351 Jennifer Bravo F 16 Bell Gardens United States 00:51:34 13-18 34 35 211 266 367 438
2379 Jesse Perez M 15 Gardena United States 00:51:35 13-18 47 48 158 172 369 438
2380 Mirtha Perez F 20 Gardena United States 00:51:35 19-29 27 30 212 266 370 438
2375 Fred Long M 60 San Diego United States 00:51:35 60-69 5 5 157 172 368 438
2374 Vivia Buelna F 56 San Diego United States 00:51:37 50-59 39 50 213 266 371 438
2275 Alisha Enriquez F 19 Los Angeles United States 00:51:40 19-29 28 30 214 266 372 438
2257 Douglas Newman M 70 Ontario United States 00:51:54 70-99 4 5 159 172 373 438
2229 Annabelle Serna F 50 Azusa United States 00:51:59 50-59 40 50 215 266 374 438
2287 Cynthia Panagiotidis F 58 La Puente United States 00:52:00 50-59 41 50 216 266 375 438
2135 Caryl Albright F 63 Playa Del Rey United States 00:52:09 60-69 10 19 217 266 376 438
2005 Xiomara Sorto F 30 Inglewood United States 00:52:28 30-39 56 59 219 266 378 438
2169 Cherlyn Clark F 53 Los Angeles United States 00:52:28 50-59 42 50 218 266 377 438
2018 Stephanie Tappe F 43 Los Angeles United States 00:52:33 40-49 43 52 220 266 379 438
2090 Yvonne Faustinos F 42 Inglewood United States 00:52:37 40-49 44 52 221 266 380 438
2299 Lillyan Ika-Sapau F 31 Hawthorne United States 00:52:49 30-39 57 59 222 266 381 438
2089 Ingrid Frias F 33 Inglewood United States 00:53:00 30-39 58 59 223 266 382 438
2428 Gina Garcia F 45 Playa Del Rey United States 00:53:12 40-49 45 52 224 266 383 438
2405 De Edna Smith F 61 Carson United States 00:53:25 60-69 11 19 225 266 384 438
2163 Eduardo Reynoso M 27 South Gate United States 00:53:30 19-29 24 21 160 172 385 438
2328 Debra Dickerson F 63 Paramount United States 00:53:32 60-69 12 19 226 266 386 438
2014 Amy Clark F 41 Gardena United States 00:53:47 40-49 46 52 227 266 387 438
2312 Catherine Mosley-Ford F 62 Los Angeles United States 00:53:52 60-69 13 19 228 266 388 438
2078 Rosemary Mercado F 48 Pico Rivera United States 00:54:37 40-49 47 52 229 266 389 438
2198 Lawrence White M 58 Los Angeles United States 00:54:45 50-59 20 16 161 172 390 438
2165 Bernice White F 55 Los Angeles United States 00:54:47 50-59 43 50 230 266 391 438
2024 Jennifer Grigsby F 67 Hawthorne United States 00:54:50 60-69 14 19 231 266 392 438
2076 Oscar Mercado M 48 Pico Rivera United States 00:54:52 40-49 21 18 162 172 393 438
2388 TANYA JOHNSON LEE F 52 Los Angeles United States 00:54:54 50-59 44 50 232 266 394 438
2195 Shannon Davis F 46 Gardena United States 00:55:38 40-49 48 52 233 266 395 438
2154 Maribel Sarabia F 37 Buena Park United States 00:55:38 30-39 59 59 234 266 396 438
2043 Natalie Dixon F 53 Gardena United States 00:55:50 50-59 45 50 235 266 397 438
2367 Sydney LAWRENCE F 61 Los Angeles United States 00:55:53 60-69 15 19 236 266 398 438
2182 Jasmine Cox F 23 Lancaster United States 00:55:55 19-29 29 30 238 266 400 438
2327 Laura Cox F 54 Lancaster United States 00:55:55 50-59 46 50 237 266 399 438